Terminal Aerodrome Forecast
Issued by NWS Salt Lake City, UT

Home | Current Version | Previous Version | Text Only | Print | Product List | Glossary On
Versions: 1 2 3 4 5 6 7 8 9 10 11 12 13 14 15 16 17 18 19 20 21 22 23 24 25
000
FTUS45 KSLC 011120
TAFCDC
TAF
KCDC 011120Z 0112/0212 15005KT P6SM FEW100 BKN150
     FM011800 22008KT P6SM SCT100 BKN150
     FM012100 20010G16KT P6SM VCTS BKN080CB BKN120
     FM020100 VRB06KT P6SM -SHRA BKN070 OVC100
     FM020600 15006KT P6SM VCSH BKN070 BKN100=

USA.gov is the U.S. government's official web portal to all federal, state and local government web resources and services.